Pamlico — WX6900 — position and weather

sailwx.info

Track history (hours):
 
Tides and Currents Weather Stations Pressure Air Temp Water Temp Dewpoint Dewpoint Depression Visibility Wind Speed Wind Dir Waves Ship Positions

Pamlico

Owner: PCS Phosphate, AURORA, NC. More information available from US FCC via Universal Licensing System and Coast Guard Vessel Documentation Center.

Last reported at 2017-Feb-23 23:04 UTC. Time now 2017-Feb-28 03:25 UTC.
Position N 34°58' W 076°41'.

; draft 2 m.

Type: Tug. MMSI: 367361220.

Date/timePositionNaut miles runAvg speedWind from/ knotsBaromVisibWave heightAir tempDewpointWater temp
2017-Feb-23 23:04N 34°58' W 076°41'4 7.1
2017-Feb-23 22:33N 34°55' W 076°40'8 7.6
2017-Feb-23 21:33N 34°47' W 076°41'4 4.0
2017-Feb-23 20:33N 34°43' W 076°42'0 0.2
2017-Feb-23 19:33N 34°43' W 076°42'0 0.0
2017-Feb-23 18:33N 34°43' W 076°42'0 0.0
2017-Feb-23 17:33N 34°43' W 076°42'0 0.0
2017-Feb-23 16:33N 34°43' W 076°42'0 0.0
2017-Feb-23 15:33N 34°43' W 076°42'0 0.0
2017-Feb-23 14:33N 34°43' W 076°42'0 0.0
2017-Feb-23 13:33N 34°43' W 076°42'0 0.0
2017-Feb-23 12:33N 34°43' W 076°42'5 5.5
2017-Feb-23 11:33N 34°49' W 076°41'4 4.2
2017-Feb-23 10:33N 34°53' W 076°41'4 4.2
2017-Feb-23 09:33N 34°57' W 076°41'  
2017-Feb-20 12:31N 34°54' W 076°40'6 6.5
2017-Feb-20 11:33N 34°48' W 076°41'5 4.7
2017-Feb-20 10:33N 34°43' W 076°42'0 0.0
2017-Feb-20 09:33N 34°43' W 076°42'0 0.0
2017-Feb-20 08:33N 34°43' W 076°42'5 4.8
2017-Feb-20 07:33N 34°48' W 076°41'4 4.3
2017-Feb-20 06:33N 34°52' W 076°42'5 4.7
2017-Feb-20 05:32N 34°57' W 076°40'13 0.3
2017-Feb-18 08:33N 35°07' W 076°31'10 7.8
2017-Feb-18 07:19N 35°01' W 076°40'5 6.1
2017-Feb-18 06:31N 34°56' W 076°39'7 7.5
2017-Feb-18 05:33N 34°49' W 076°41'6 5.7
2017-Feb-18 04:33N 34°43' W 076°42'0 0.1
2017-Feb-18 03:33N 34°43' W 076°42'0 0.1
2017-Feb-18 02:33N 34°43' W 076°42'4 4.5
2017-Feb-18 01:33N 34°48' W 076°41'6 6.1
2017-Feb-18 00:31N 34°54' W 076°41'3 0.1
2017-Feb-16 15:33N 34°57' W 076°40'7 6.7
2017-Feb-16 14:33N 34°50' W 076°41'7 6.9
2017-Feb-16 13:33N 34°43' W 076°42'1 0.6
2017-Feb-16 12:33N 34°43' W 076°41'1 0.7
2017-Feb-16 11:33N 34°43' W 076°42'0 0.0
2017-Feb-16 10:33N 34°43' W 076°42'0 0.0
2017-Feb-16 09:33N 34°43' W 076°42'0 0.0
2017-Feb-16 08:33N 34°43' W 076°42'0 0.0
2017-Feb-16 07:33N 34°43' W 076°42'0 0.0
2017-Feb-16 06:33N 34°43' W 076°42'4 3.8
2017-Feb-16 05:33N 34°47' W 076°41'5 4.7
2017-Feb-16 04:33N 34°52' W 076°41'5 4.6
2017-Feb-16 03:33N 34°56' W 076°39'4 0.1
2017-Feb-14 07:33N 35°00' W 076°40'6 6.0
2017-Feb-14 06:33N 34°54' W 076°41'7 6.8
2017-Feb-14 05:33N 34°47' W 076°41'5 4.6
2017-Feb-14 04:33N 34°43' W 076°41'1 1.0
2017-Feb-14 03:33N 34°44' W 076°42'5 5.2
2017-Feb-14 02:33N 34°49' W 076°41'5 4.9
2017-Feb-14 01:32N 34°54' W 076°41'  
Track history (hours):
 
Tides and Currents Weather Stations Pressure Air Temp Water Temp Dewpoint Dewpoint Depression Visibility Wind Speed Wind Dir Waves Ship Positions

Pamlico

Owner: PCS Phosphate, AURORA, NC. More information available from US FCC via Universal Licensing System and Coast Guard Vessel Documentation Center.

Last reported at 2017-Feb-23 23:04 UTC. Time now 2017-Feb-28 03:25 UTC.
Position N 34°58' W 076°41'.

; draft 2 m.

Type: Tug. MMSI: 367361220.

Date/timePositionNaut miles runAvg speedWind from/ knotsBaromVisibWave heightAir tempDewpointWater temp
2017-Feb-23 23:04N 34°58' W 076°41'4 7.1
2017-Feb-23 22:33N 34°55' W 076°40'8 7.6
2017-Feb-23 21:33N 34°47' W 076°41'4 4.0
2017-Feb-23 20:33N 34°43' W 076°42'0 0.2
2017-Feb-23 19:33N 34°43' W 076°42'0 0.0
2017-Feb-23 18:33N 34°43' W 076°42'0 0.0
2017-Feb-23 17:33N 34°43' W 076°42'0 0.0
2017-Feb-23 16:33N 34°43' W 076°42'0 0.0
2017-Feb-23 15:33N 34°43' W 076°42'0 0.0
2017-Feb-23 14:33N 34°43' W 076°42'0 0.0
2017-Feb-23 13:33N 34°43' W 076°42'0 0.0
2017-Feb-23 12:33N 34°43' W 076°42'5 5.5
2017-Feb-23 11:33N 34°49' W 076°41'4 4.2
2017-Feb-23 10:33N 34°53' W 076°41'4 4.2
2017-Feb-23 09:33N 34°57' W 076°41'  
2017-Feb-20 12:31N 34°54' W 076°40'6 6.5
2017-Feb-20 11:33N 34°48' W 076°41'5 4.7
2017-Feb-20 10:33N 34°43' W 076°42'0 0.0
2017-Feb-20 09:33N 34°43' W 076°42'0 0.0
2017-Feb-20 08:33N 34°43' W 076°42'5 4.8
2017-Feb-20 07:33N 34°48' W 076°41'4 4.3
2017-Feb-20 06:33N 34°52' W 076°42'5 4.7
2017-Feb-20 05:32N 34°57' W 076°40'13 0.3
2017-Feb-18 08:33N 35°07' W 076°31'10 7.8
2017-Feb-18 07:19N 35°01' W 076°40'5 6.1
2017-Feb-18 06:31N 34°56' W 076°39'7 7.5
2017-Feb-18 05:33N 34°49' W 076°41'6 5.7
2017-Feb-18 04:33N 34°43' W 076°42'0 0.1
2017-Feb-18 03:33N 34°43' W 076°42'0 0.1
2017-Feb-18 02:33N 34°43' W 076°42'4 4.5
2017-Feb-18 01:33N 34°48' W 076°41'6 6.1
2017-Feb-18 00:31N 34°54' W 076°41'3 0.1
2017-Feb-16 15:33N 34°57' W 076°40'7 6.7
2017-Feb-16 14:33N 34°50' W 076°41'7 6.9
2017-Feb-16 13:33N 34°43' W 076°42'1 0.6
2017-Feb-16 12:33N 34°43' W 076°41'1 0.7
2017-Feb-16 11:33N 34°43' W 076°42'0 0.0
2017-Feb-16 10:33N 34°43' W 076°42'0 0.0
2017-Feb-16 09:33N 34°43' W 076°42'0 0.0
2017-Feb-16 08:33N 34°43' W 076°42'0 0.0
2017-Feb-16 07:33N 34°43' W 076°42'0 0.0
2017-Feb-16 06:33N 34°43' W 076°42'4 3.8
2017-Feb-16 05:33N 34°47' W 076°41'5 4.7
2017-Feb-16 04:33N 34°52' W 076°41'5 4.6
2017-Feb-16 03:33N 34°56' W 076°39'4 0.1
2017-Feb-14 07:33N 35°00' W 076°40'6 6.0
2017-Feb-14 06:33N 34°54' W 076°41'7 6.8
2017-Feb-14 05:33N 34°47' W 076°41'5 4.6
2017-Feb-14 04:33N 34°43' W 076°41'1 1.0
2017-Feb-14 03:33N 34°44' W 076°42'5 5.2
2017-Feb-14 02:33N 34°49' W 076°41'5 4.9
2017-Feb-14 01:32N 34°54' W 076°41'  

Dump ship's entire track history